Time;durP1;ratioP1;P1;durP2;ratioP2;P2;SDS_P1;SDS_P2;PMS_P1;PMS_P2;Temp;Humidity;BMP_temperature;BMP_pressure;BME280_temperature;BME280_humidity;BME280_pressure;Samples;Min_cycle;Max_cycle;Signal;HPM_P1;HPM_P2
2023/08/20 00:01:41;;;;;;;12.77;7.15;;;;;;;17.57;98.94;101935.13;5007376;28;20045;-74
2023/08/20 00:04:09;;;;;;;12.32;6.85;;;;;;;17.54;98.70;101934.31;5006066;28;20153;-74
2023/08/20 00:06:37;;;;;;;10.80;7.03;;;;;;;17.52;99.04;101935.31;4998825;28;20042;-74
2023/08/20 00:09:06;;;;;;;17.25;7.43;;;;;;;17.50;99.10;101937.19;5009135;28;20655;-76
2023/08/20 00:11:33;;;;;;;13.45;7.13;;;;;;;17.46;98.96;101928.44;5008154;28;20057;-74
2023/08/20 00:14:00;;;;;;;15.13;7.55;;;;;;;17.45;99.82;101931.19;4999285;28;20038;-73
2023/08/20 00:16:28;;;;;;;12.10;6.70;;;;;;;17.44;99.73;101932.13;5006085;28;20169;-73
2023/08/20 00:18:55;;;;;;;10.98;6.93;;;;;;;17.43;100.00;101933.91;5006455;28;20038;-73
2023/08/20 00:21:23;;;;;;;11.35;6.85;;;;;;;17.43;99.94;101933.03;5007265;28;20155;-74
2023/08/20 00:23:50;;;;;;;9.90;6.85;;;;;;;17.43;100.00;101939.22;5006518;28;20564;-73
2023/08/20 00:26:18;;;;;;;10.45;6.95;;;;;;;17.46;99.98;101938.22;5001564;28;20100;-77
2023/08/20 00:28:45;;;;;;;8.82;6.85;;;;;;;17.47;100.00;101940.84;5004039;28;20046;-75
2023/08/20 00:31:12;;;;;;;12.10;6.93;;;;;;;17.49;100.00;101939.00;5005778;28;20135;-75
2023/08/20 00:33:39;;;;;;;10.70;6.53;;;;;;;17.49;99.86;101940.78;5005579;28;20495;-75
2023/08/20 00:36:17;;;;;;;12.35;6.72;;;;;;;17.49;100.00;101932.78;5005780;28;20119;-75
2023/08/20 00:38:44;;;;;;;12.88;6.93;;;;;;;17.47;100.00;101935.50;4995973;28;20046;-76
2023/08/20 00:41:11;;;;;;;10.30;7.53;;;;;;;17.50;100.00;101934.50;4997371;28;20045;-76
2023/08/20 00:43:38;;;;;;;12.77;7.03;;;;;;;17.51;100.00;101933.59;5004400;28;20462;-75
2023/08/20 00:46:06;;;;;;;10.27;6.85;;;;;;;17.54;100.00;101946.78;4979160;28;20050;-74
2023/08/20 00:48:34;;;;;;;9.77;6.63;;;;;;;17.57;100.00;101946.63;4992482;28;20046;-75
2023/08/20 00:51:02;;;;;;;13.80;6.97;;;;;;;17.59;100.00;101939.44;4990851;28;20046;-74
2023/08/20 00:53:29;;;;;;;11.38;6.97;;;;;;;17.59;100.00;101944.78;4991414;28;20050;-75
2023/08/20 00:55:56;;;;;;;10.15;6.75;;;;;;;17.56;99.92;101944.91;5006289;28;20038;-75
2023/08/20 00:58:23;;;;;;;11.02;7.28;;;;;;;17.55;100.00;101959.16;4988865;28;20045;-74
2023/08/20 01:00:50;;;;;;;15.02;7.30;;;;;;;17.50;99.94;101951.34;5004736;28;20124;-74
2023/08/20 01:03:18;;;;;;;12.52;7.30;;;;;;;17.45;99.86;101963.19;4989665;28;20068;-73
2023/08/20 01:05:58;;;;;;;12.30;6.78;;;;;;;17.41;100.00;101964.22;5000335;28;20042;-74
2023/08/20 01:08:40;;;;;;;11.98;7.55;;;;;;;17.36;100.00;101959.09;4993328;28;20093;-73
2023/08/20 01:11:21;;;;;;;12.30;6.68;;;;;;;17.36;100.00;101964.41;4999922;28;20107;-73
2023/08/20 01:13:48;;;;;;;11.90;6.97;;;;;;;17.31;100.00;101961.94;4995257;28;20045;-73
2023/08/20 01:16:15;;;;;;;11.57;7.30;;;;;;;17.30;99.81;101968.19;5005629;28;20499;-73
2023/08/20 01:18:43;;;;;;;14.13;7.15;;;;;;;17.27;100.00;101965.66;5003912;28;20099;-74
2023/08/20 01:21:54;;;;;;;17.48;8.05;;;;;;;17.24;100.00;101965.78;5005829;28;20092;-74
2023/08/20 01:25:11;;;;;;;9.80;6.50;;;;;;;17.20;100.00;101970.34;5001556;28;20532;-73
2023/08/20 01:28:08;;;;;;;11.48;6.97;;;;;;;17.21;100.00;101981.88;4988169;28;20064;-74
2023/08/20 01:30:35;;;;;;;11.70;6.63;;;;;;;17.27;100.00;101988.78;4988282;28;20045;-74
2023/08/20 01:33:02;;;;;;;14.02;7.97;;;;;;;17.31;100.00;101990.38;5002523;28;20034;-73
2023/08/20 01:35:29;;;;;;;12.77;7.75;;;;;;;17.38;100.00;102003.38;5004938;28;20645;-74
2023/08/20 01:38:03;;;;;;;11.33;8.57;;;;;;;17.47;100.00;101998.59;4984492;28;20049;-74
2023/08/20 01:40:31;;;;;;;14.30;8.20;;;;;;;17.53;100.00;101999.22;4989896;28;20373;-74
2023/08/20 01:42:59;;;;;;;9.80;7.00;;;;;;;17.60;100.00;102010.50;5001493;28;20794;-75
2023/08/20 01:45:26;;;;;;;11.18;7.50;;;;;;;17.66;100.00;102015.56;4997590;28;20038;-74
2023/08/20 01:47:54;;;;;;;12.32;7.63;;;;;;;17.71;100.00;102018.03;5000388;28;20524;-76
2023/08/20 01:50:21;;;;;;;13.82;7.78;;;;;;;17.79;100.00;102023.06;5003398;28;20050;-75
2023/08/20 01:52:48;;;;;;;12.15;8.30;;;;;;;17.86;100.00;102024.53;5006423;28;20049;-75
2023/08/20 01:55:15;;;;;;;10.40;7.53;;;;;;;17.92;100.00;102028.75;4992351;28;20101;-76
2023/08/20 01:57:43;;;;;;;15.48;7.70;;;;;;;17.96;100.00;102017.91;5006763;28;20100;-75
2023/08/20 02:00:11;;;;;;;11.48;7.93;;;;;;;18.00;100.00;102024.00;4988052;28;20065;-76
2023/08/20 02:02:41;;;;;;;12.02;8.15;;;;;;;18.03;100.00;102021.19;5004667;28;20414;-75
2023/08/20 02:05:10;;;;;;;12.77;7.80;;;;;;;18.05;100.00;102018.47;4998498;28;20116;-75
2023/08/20 02:07:38;;;;;;;13.77;7.40;;;;;;;18.06;100.00;102010.38;5003585;28;20132;-75
2023/08/20 02:10:06;;;;;;;11.60;6.40;;;;;;;18.07;100.00;102009.47;5001208;28;20045;-75
2023/08/20 02:12:33;;;;;;;11.23;6.95;;;;;;;18.07;100.00;102013.91;5005259;28;20757;-76
2023/08/20 02:15:00;;;;;;;11.85;7.10;;;;;;;18.09;100.00;102012.06;4985764;28;20619;-75
2023/08/20 02:17:27;;;;;;;10.38;6.50;;;;;;;18.07;100.00;102017.47;5004928;28;20042;-75
2023/08/20 02:19:55;;;;;;;10.85;6.30;;;;;;;18.08;100.00;102016.53;5002276;28;20053;-74
2023/08/20 02:22:22;;;;;;;10.40;6.78;;;;;;;18.11;100.00;102019.03;5003450;28;20050;-74
2023/08/20 02:24:49;;;;;;;11.50;6.88;;;;;;;18.15;100.00;102025.16;5005338;28;20057;-75
2023/08/20 02:27:16;;;;;;;12.98;6.85;;;;;;;18.16;100.00;102029.56;5001817;28;20035;-75
2023/08/20 02:29:45;;;;;;;10.18;6.78;;;;;;;18.16;100.00;102029.56;4999709;28;20048;-74
2023/08/20 02:32:14;;;;;;;11.57;7.18;;;;;;;18.13;100.00;102019.84;4987378;28;20081;-74
2023/08/20 02:34:41;;;;;;;9.77;7.55;;;;;;;18.10;100.00;102019.13;5005711;28;20061;-74
2023/08/20 02:37:08;;;;;;;10.95;7.35;;;;;;;18.09;100.00;102022.72;5005449;28;20120;-75
2023/08/20 02:39:36;;;;;;;11.18;7.28;;;;;;;18.10;100.00;102021.78;5006956;28;20045;-75
2023/08/20 02:42:03;;;;;;;11.27;7.15;;;;;;;18.13;100.00;102029.66;5008949;28;20046;-73
2023/08/20 02:44:30;;;;;;;10.93;6.63;;;;;;;18.18;100.00;102021.47;4991599;28;20121;-74
2023/08/20 02:46:57;;;;;;;11.88;7.00;;;;;;;18.20;100.00;102024.94;5004692;28;20046;-73
2023/08/20 02:49:24;;;;;;;8.73;6.40;;;;;;;18.20;100.00;102023.13;5008435;28;20569;-73
2023/08/20 02:51:52;;;;;;;9.18;6.70;;;;;;;18.20;100.00;102019.59;5009428;28;20046;-73
2023/08/20 02:54:19;;;;;;;8.48;6.05;;;;;;;18.21;100.00;102019.53;5008006;28;20050;-73
2023/08/20 02:56:46;;;;;;;13.30;7.07;;;;;;;18.22;100.00;102015.03;4992391;28;20049;-73
2023/08/20 02:59:13;;;;;;;15.38;7.75;;;;;;;18.22;100.00;102013.25;5007705;28;20108;-73
2023/08/20 03:01:40;;;;;;;14.10;7.13;;;;;;;18.21;100.00;102006.19;5005534;28;20065;-75
2023/08/20 03:04:07;;;;;;;10.23;6.30;;;;;;;18.16;100.00;102001.06;4998706;28;20128;-76
2023/08/20 03:06:34;;;;;;;13.68;6.63;;;;;;;18.14;100.00;102004.72;5006506;28;20041;-72
2023/08/20 03:09:03;;;;;;;12.98;6.88;;;;;;;18.15;100.00;101996.66;4991546;28;20042;-72
2023/08/20 03:11:31;;;;;;;10.20;6.05;;;;;;;18.15;100.00;101999.31;5009259;28;20524;-72
2023/08/20 03:13:58;;;;;;;11.80;6.78;;;;;;;18.13;100.00;101990.50;5008014;28;20140;-73
2023/08/20 03:16:25;;;;;;;15.50;6.55;;;;;;;18.12;100.00;102001.25;5009363;28;20046;-73
2023/08/20 03:18:52;;;;;;;17.15;6.97;;;;;;;18.10;100.00;101998.66;5003785;28;20041;-72
2023/08/20 03:21:19;;;;;;;14.85;6.72;;;;;;;18.06;100.00;101994.38;5000202;28;20091;-73
2023/08/20 03:23:47;;;;;;;11.45;6.25;;;;;;;18.02;100.00;101995.44;4991172;28;20042;-72
2023/08/20 03:26:14;;;;;;;13.35;6.47;;;;;;;17.98;100.00;101996.53;5008733;28;20127;-72
2023/08/20 03:28:41;;;;;;;11.52;6.90;;;;;;;17.93;100.00;101993.13;4991116;28;20569;-73
2023/08/20 03:31:08;;;;;;;10.70;6.53;;;;;;;17.87;100.00;101994.25;4976998;28;20050;-72
2023/08/20 03:33:40;;;;;;;16.33;7.28;;;;;;;17.84;100.00;101995.28;5006066;28;20070;-73
2023/08/20 03:36:07;;;;;;;13.85;6.90;;;;;;;17.81;100.00;101990.06;5007123;28;20161;-73
2023/08/20 03:38:34;;;;;;;12.68;7.35;;;;;;;17.77;100.00;101993.81;5008164;28;20049;-70
2023/08/20 03:41:01;;;;;;;14.15;7.20;;;;;;;17.73;100.00;102002.84;5005857;28;20046;-72
2023/08/20 03:43:28;;;;;;;9.65;6.93;;;;;;;17.69;100.00;101995.94;5008056;28;20108;-74
2023/08/20 03:45:56;;;;;;;11.77;6.72;;;;;;;17.64;100.00;102000.56;5004742;28;20061;-73
2023/08/20 03:48:24;;;;;;;12.32;6.43;;;;;;;17.58;100.00;101996.38;5005291;28;20529;-73
2023/08/20 03:50:51;;;;;;;11.32;7.05;;;;;;;17.52;100.00;102001.97;4990433;28;20108;-74
2023/08/20 03:53:18;;;;;;;10.57;6.90;;;;;;;17.49;100.00;102004.75;4992653;28;20049;-73
2023/08/20 03:55:49;;;;;;;14.98;7.28;;;;;;;17.46;100.00;101999.53;5005613;28;20038;-73
2023/08/20 03:58:18;;;;;;;12.77;7.07;;;;;;;17.41;100.00;102006.88;5000308;28;20058;-73
2023/08/20 04:00:46;;;;;;;15.00;7.82;;;;;;;17.36;100.00;102007.91;4994213;28;20653;-72
2023/08/20 04:03:14;;;;;;;10.95;6.65;;;;;;;17.32;100.00;102008.97;5010448;28;20050;-76
2023/08/20 04:05:41;;;;;;;18.33;8.40;;;;;;;17.29;100.00;102017.09;5009394;28;20069;-76
2023/08/20 04:08:08;;;;;;;12.13;7.20;;;;;;;17.26;100.00;102011.03;5008431;28;20077;-75
2023/08/20 04:10:35;;;;;;;14.18;8.00;;;;;;;17.20;100.00;102014.78;5009879;28;20494;-75
2023/08/20 04:13:07;;;;;;;12.05;7.22;;;;;;;17.14;100.00;102007.91;5007904;28;20122;-75
2023/08/20 04:15:34;;;;;;;13.35;6.78;;;;;;;17.12;100.00;102008.91;4991270;28;20054;-74
2023/08/20 04:18:01;;;;;;;15.43;6.50;;;;;;;17.09;100.00;102012.56;5009880;28;20129;-74
2023/08/20 04:20:30;;;;;;;11.93;6.50;;;;;;;17.04;100.00;102007.38;4993146;28;20073;-74
2023/08/20 04:22:58;;;;;;;9.98;7.13;;;;;;;17.02;100.00;102009.28;4990265;28;20053;-74
2023/08/20 04:25:25;;;;;;;12.70;7.38;;;;;;;16.98;100.00;102010.31;5007727;28;20044;-74
2023/08/20 04:27:52;;;;;;;10.18;6.85;;;;;;;16.97;100.00;102007.72;4989418;28;20352;-74
2023/08/20 04:30:19;;;;;;;10.73;6.88;;;;;;;16.95;100.00;102009.56;5008024;28;20099;-74
2023/08/20 04:32:46;;;;;;;12.05;7.05;;;;;;;16.89;100.00;102000.81;4990312;28;20046;-74
2023/08/20 04:35:15;;;;;;;11.75;7.55;;;;;;;16.89;100.00;102010.63;5005660;28;20042;-74
2023/08/20 04:37:42;;;;;;;12.25;7.40;;;;;;;16.84;100.00;102008.13;5006477;28;20053;-74
2023/08/20 04:40:10;;;;;;;12.60;6.55;;;;;;;16.83;100.00;102018.88;4990188;28;20041;-74
2023/08/20 04:42:38;;;;;;;14.18;6.88;;;;;;;16.81;100.00;102024.22;5004797;28;20065;-74
2023/08/20 04:45:06;;;;;;;13.23;6.60;;;;;;;16.82;100.00;102028.63;4997632;28;20128;-74
2023/08/20 04:47:35;;;;;;;10.43;6.95;;;;;;;16.80;100.00;102026.97;4991058;28;20691;-75
2023/08/20 04:50:06;;;;;;;15.98;7.50;;;;;;;16.81;100.00;102029.56;4996510;28;20077;-75
2023/08/20 04:52:34;;;;;;;9.43;6.38;;;;;;;16.84;100.00;102028.59;5007571;28;20042;-75
2023/08/20 04:55:02;;;;;;;13.98;6.57;;;;;;;16.85;100.00;102031.19;5007114;28;20037;-75
2023/08/20 04:57:29;;;;;;;10.65;6.30;;;;;;;16.87;100.00;102028.44;5007805;28;20160;-75
2023/08/20 04:59:57;;;;;;;9.20;5.85;;;;;;;16.88;100.00;102032.84;4981984;28;20077;-75
2023/08/20 05:02:40;;;;;;;9.93;6.05;;;;;;;16.91;100.00;102038.94;4999169;28;20038;-75
2023/08/20 05:05:11;;;;;;;10.00;6.18;;;;;;;16.96;100.00;102044.13;4988957;28;20034;-76
2023/08/20 05:07:39;;;;;;;12.07;6.18;;;;;;;17.00;100.00;102048.41;5005683;28;20107;-76
2023/08/20 05:10:07;;;;;;;12.30;6.88;;;;;;;17.05;100.00;102040.25;4989897;28;20042;-76
2023/08/20 05:12:36;;;;;;;14.75;6.13;;;;;;;17.11;100.00;102044.47;5005369;28;20068;-76
2023/08/20 05:15:04;;;;;;;10.30;5.93;;;;;;;17.20;100.00;102047.63;4990250;28;20704;-76
2023/08/20 05:17:31;;;;;;;10.27;6.30;;;;;;;17.30;100.00;102050.81;4989337;28;20598;-76
2023/08/20 05:19:59;;;;;;;9.57;6.35;;;;;;;17.54;100.00;102048.94;4998940;28;20457;-76
2023/08/20 05:22:26;;;;;;;8.57;5.88;;;;;;;17.67;100.00;102059.13;5005310;28;20053;-76
2023/08/20 05:24:53;;;;;;;11.75;6.32;;;;;;;17.92;100.00;102053.63;4990164;28;20775;-76
2023/08/20 05:27:21;;;;;;;11.15;5.35;;;;;;;18.01;99.47;102055.06;5004567;28;20046;-76
2023/08/20 05:29:50;;;;;;;7.55;5.95;;;;;;;18.49;98.49;102061.00;4987030;28;20041;-76
2023/08/20 05:32:18;;;;;;;7.80;5.22;;;;;;;19.88;94.28;102050.97;4987834;28;20066;-76
2023/08/20 05:34:46;;;;;;;7.38;4.85;;;;;;;21.22;89.52;102047.47;4987952;28;20137;-74
2023/08/20 05:37:14;;;;;;;9.40;4.57;;;;;;;22.33;84.42;102046.38;5000191;28;20442;-73
2023/08/20 05:39:43;;;;;;;9.35;4.53;;;;;;;23.29;80.24;102050.31;4988202;28;20045;-73
2023/08/20 05:42:11;;;;;;;6.60;3.90;;;;;;;24.12;76.89;102051.13;5001572;28;20199;-73
2023/08/20 05:44:42;;;;;;;7.30;3.85;;;;;;;24.69;73.59;102057.09;4984705;28;20050;-73
2023/08/20 05:47:13;;;;;;;9.57;3.92;;;;;;;24.13;73.44;102059.09;4986983;28;20038;-73
2023/08/20 05:49:40;;;;;;;6.93;3.55;;;;;;;23.01;76.38;102065.50;5004175;28;20037;-73
2023/08/20 05:52:07;;;;;;;8.13;4.53;;;;;;;22.10;79.12;102057.66;4984475;28;20046;-73
2023/08/20 05:54:35;;;;;;;9.32;4.78;;;;;;;21.38;81.14;102055.53;4990547;28;20128;-74
2023/08/20 05:57:02;;;;;;;10.55;4.63;;;;;;;20.87;83.75;102056.53;5005002;28;20066;-74
2023/08/20 05:59:30;;;;;;;11.30;4.85;;;;;;;20.53;84.96;102063.72;5008995;28;20151;-74
2023/08/20 06:01:57;;;;;;;11.05;6.18;;;;;;;20.28;86.60;102064.13;4988656;28;20034;-74
2023/08/20 06:04:24;;;;;;;13.57;7.95;;;;;;;20.09;87.43;102070.44;4998587;28;20764;-75
2023/08/20 06:06:51;;;;;;;19.70;9.38;;;;;;;19.98;88.13;102065.63;5005583;28;20124;-74
2023/08/20 06:09:19;;;;;;;29.17;11.15;;;;;;;19.90;89.33;102066.94;5005417;28;20073;-74
2023/08/20 06:11:46;;;;;;;22.50;10.73;;;;;;;19.81;89.29;102060.22;4992275;28;20521;-74
2023/08/20 06:14:13;;;;;;;21.10;10.15;;;;;;;19.76;90.05;102062.25;5002627;28;20065;-74
2023/08/20 06:16:40;;;;;;;18.33;10.77;;;;;;;19.72;90.47;102064.22;4995713;28;20467;-75
2023/08/20 06:19:08;;;;;;;15.63;10.43;;;;;;;19.69;91.08;102061.69;5005077;28;20103;-74
2023/08/20 06:21:35;;;;;;;14.88;10.77;;;;;;;19.64;91.07;102061.06;5004289;28;20634;-74
2023/08/20 06:24:03;;;;;;;15.10;10.70;;;;;;;19.64;91.23;102066.41;5005543;28;20050;-76
2023/08/20 06:26:30;;;;;;;16.02;10.75;;;;;;;19.61;91.44;102067.44;5009546;28;20095;-75
2023/08/20 06:28:58;;;;;;;15.55;10.93;;;;;;;19.60;91.87;102076.41;5005515;28;20049;-75
2023/08/20 06:31:25;;;;;;;14.73;10.52;;;;;;;19.59;91.68;102073.78;5006096;28;20057;-75
2023/08/20 06:33:52;;;;;;;18.33;10.75;;;;;;;19.59;91.68;102076.47;5004735;28;20034;-75
2023/08/20 06:36:19;;;;;;;12.98;10.80;;;;;;;19.61;91.77;102077.25;5004321;28;20046;-75
2023/08/20 06:38:46;;;;;;;15.70;10.10;;;;;;;19.62;91.91;102077.19;5001094;28;20046;-75
2023/08/20 06:41:14;;;;;;;20.38;11.40;;;;;;;19.64;92.29;102075.28;5002046;28;20050;-72
2023/08/20 06:43:41;;;;;;;17.90;11.48;;;;;;;19.69;92.31;102075.06;4985477;28;20557;-72
2023/08/20 06:46:08;;;;;;;14.93;10.20;;;;;;;19.73;91.81;102082.00;5002963;28;20399;-71
2023/08/20 06:48:35;;;;;;;20.65;12.13;;;;;;;19.79;92.31;102076.34;5001449;28;20070;-71
2023/08/20 06:51:12;;;;;;;15.73;10.52;;;;;;;19.89;92.38;102082.16;4985028;28;20092;-72
2023/08/20 06:53:42;;;;;;;19.58;11.82;;;;;;;19.97;92.60;102087.13;5001605;28;20041;-72
2023/08/20 06:56:11;;;;;;;18.20;11.38;;;;;;;20.07;92.29;102087.50;5001370;28;20042;-71
2023/08/20 06:58:40;;;;;;;14.55;9.93;;;;;;;20.17;91.87;102089.66;4998637;28;20053;-71
2023/08/20 07:01:08;;;;;;;16.20;10.75;;;;;;;20.25;90.90;102091.06;5001809;28;20129;-75
2023/08/20 07:03:38;;;;;;;15.32;10.15;;;;;;;20.35;90.62;102096.81;5004035;28;20049;-77
2023/08/20 07:06:06;;;;;;;14.50;9.70;;;;;;;20.42;89.75;102087.50;5003433;28;20064;-75
2023/08/20 07:08:33;;;;;;;17.13;9.00;;;;;;;20.50;87.77;102085.28;5004390;28;20065;-75
2023/08/20 07:11:00;;;;;;;12.25;8.40;;;;;;;20.57;87.27;102086.69;4990001;28;20053;-76
2023/08/20 07:13:28;;;;;;;15.70;9.18;;;;;;;20.63;87.20;102089.06;5006424;28;20100;-76
2023/08/20 07:15:55;;;;;;;16.50;10.55;;;;;;;20.71;86.67;102093.13;5006766;28;20038;-77
2023/08/20 07:18:22;;;;;;;13.52;9.68;;;;;;;20.77;87.15;102093.69;5010006;28;20088;-76
2023/08/20 07:20:55;;;;;;;16.05;9.68;;;;;;;20.86;86.33;102092.31;4998703;28;20073;-76
2023/08/20 07:23:23;;;;;;;13.80;9.80;;;;;;;20.96;86.19;102086.50;5006888;28;20124;-77
2023/08/20 07:25:52;;;;;;;15.13;8.85;;;;;;;21.04;85.99;102087.78;5008635;28;20034;-76
2023/08/20 07:28:56;;;;;;;12.77;8.32;;;;;;;21.14;84.18;102090.84;5004337;28;20127;-75
2023/08/20 07:31:09;;;;;;;12.70;7.72;;;;;;;21.21;82.04;102091.34;4999194;28;20600;-74
2023/08/20 07:33:36;;;;;;;12.90;8.38;;;;;;;21.28;82.15;102090.06;5005896;28;20108;-76
2023/08/20 07:36:04;;;;;;;13.98;8.15;;;;;;;21.36;82.48;102086.94;4982884;28;20589;-75
2023/08/20 07:38:31;;;;;;;12.77;7.68;;;;;;;21.45;81.86;102090.91;5005783;28;20419;-75
2023/08/20 07:40:59;;;;;;;13.00;7.80;;;;;;;21.53;81.80;102094.91;5005441;28;20454;-74
2023/08/20 07:43:26;;;;;;;14.50;7.82;;;;;;;21.65;81.16;102092.50;5005976;28;20138;-75
2023/08/20 07:45:53;;;;;;;12.80;7.00;;;;;;;21.73;80.79;102090.22;5004543;28;20398;-74
2023/08/20 07:48:22;;;;;;;12.77;7.28;;;;;;;21.85;79.21;102094.88;4989396;28;20030;-74
2023/08/20 07:50:49;;;;;;;14.93;6.68;;;;;;;21.90;79.08;102086.56;5006302;28;20449;-75
2023/08/20 07:53:17;;;;;;;14.20;6.80;;;;;;;21.97;78.48;102087.94;5002329;28;20058;-76
2023/08/20 07:55:44;;;;;;;14.73;6.35;;;;;;;22.06;78.35;102091.00;5007201;28;20050;-74
2023/08/20 07:58:11;;;;;;;12.80;5.65;;;;;;;22.13;76.45;102089.72;5005129;28;20367;-74
2023/08/20 08:00:38;;;;;;;10.27;5.32;;;;;;;22.21;75.67;102087.44;5003613;28;20041;-75
2023/08/20 08:03:05;;;;;;;10.75;5.20;;;;;;;22.28;75.45;102096.00;5008372;28;20092;-76
2023/08/20 08:05:33;;;;;;;12.45;5.53;;;;;;;22.31;74.32;102095.78;5010649;28;20064;-75
2023/08/20 08:08:00;;;;;;;10.38;5.85;;;;;;;22.37;73.87;102094.53;5005684;28;20034;-75
2023/08/20 08:10:27;;;;;;;15.20;5.63;;;;;;;22.42;74.88;102095.19;5009677;28;20046;-75
2023/08/20 08:12:55;;;;;;;10.20;5.18;;;;;;;22.52;74.08;102103.53;5008651;28;20430;-77
2023/08/20 08:15:22;;;;;;;12.30;5.28;;;;;;;22.58;71.59;102111.22;5011413;28;20534;-75
2023/08/20 08:17:50;;;;;;;10.30;5.50;;;;;;;22.63;72.16;102115.38;5004566;28;20049;-78
2023/08/20 08:20:17;;;;;;;8.65;5.10;;;;;;;22.70;71.43;102110.44;5007670;28;20053;-76
2023/08/20 08:22:45;;;;;;;11.70;5.20;;;;;;;22.73;71.88;102110.25;5007961;28;20045;-74
2023/08/20 08:25:12;;;;;;;12.25;5.28;;;;;;;22.81;72.63;102109.78;5005198;28;20046;-74
2023/08/20 08:27:41;;;;;;;10.15;4.60;;;;;;;22.89;71.69;102115.56;5005466;28;20042;-75
2023/08/20 08:30:24;;;;;;;9.60;3.90;;;;;;;23.03;69.13;102122.75;5009466;28;20136;-74
2023/08/20 08:32:51;;;;;;;9.30;3.80;;;;;;;23.13;68.14;102120.34;5006084;28;20041;-75
2023/08/20 08:35:19;;;;;;;6.63;3.20;;;;;;;23.21;67.27;102120.75;5006760;28;20075;-75
2023/08/20 08:37:47;;;;;;;9.80;3.80;;;;;;;23.32;66.25;102124.56;5005153;28;20469;-75
2023/08/20 08:40:14;;;;;;;8.10;3.95;;;;;;;23.39;65.83;102121.41;5008354;28;20046;-76
2023/08/20 08:42:45;;;;;;;10.52;3.42;;;;;;;23.46;65.40;102129.91;5008364;28;20127;-74
2023/08/20 08:45:12;;;;;;;6.68;3.38;;;;;;;23.53;64.79;102136.66;5003581;28;20034;-74
2023/08/20 08:47:40;;;;;;;7.32;3.00;;;;;;;23.55;64.89;102139.22;5001453;28;20042;-73
2023/08/20 08:50:09;;;;;;;9.38;3.15;;;;;;;23.62;65.12;102137.00;5006838;28;20133;-75
2023/08/20 08:52:39;;;;;;;8.10;3.08;;;;;;;23.68;65.37;102140.16;5002707;28;20842;-75
2023/08/20 08:55:08;;;;;;;9.77;3.20;;;;;;;23.76;66.32;102125.31;5007259;28;20116;-75
2023/08/20 08:57:37;;;;;;;7.57;2.83;;;;;;;23.88;66.16;102130.75;5004892;28;20049;-75
2023/08/20 09:00:06;;;;;;;6.95;3.40;;;;;;;23.99;64.83;102129.19;5004734;28;20426;-74
2023/08/20 09:02:33;;;;;;;7.97;3.63;;;;;;;24.07;65.11;102129.53;5005681;28;20537;-75
2023/08/20 09:05:00;;;;;;;9.50;3.50;;;;;;;24.14;65.53;102130.00;5007221;28;20034;-74
2023/08/20 09:07:27;;;;;;;12.90;4.53;;;;;;;24.21;64.61;102130.44;5002293;28;20034;-73
2023/08/20 09:09:59;;;;;;;10.10;3.60;;;;;;;24.24;64.51;102132.94;5003126;28;20127;-74
2023/08/20 09:12:27;;;;;;;8.90;4.18;;;;;;;24.30;63.46;102136.06;5009202;28;20046;-75
2023/08/20 09:14:57;;;;;;;13.02;4.50;;;;;;;24.36;63.47;102132.09;5006477;28;20111;-75
2023/08/20 09:17:27;;;;;;;8.50;3.60;;;;;;;24.38;63.59;102134.69;5002519;28;20092;-74
2023/08/20 09:19:57;;;;;;;10.30;4.50;;;;;;;24.45;63.25;102128.75;5003077;28;20461;-74
2023/08/20 09:22:24;;;;;;;13.43;5.68;;;;;;;24.50;63.99;102136.53;5001892;28;20446;-75
2023/08/20 09:24:56;;;;;;;10.35;4.93;;;;;;;24.55;62.89;102131.66;5005651;28;20045;-75
2023/08/20 09:27:24;;;;;;;8.35;4.20;;;;;;;24.62;64.38;102127.56;5006164;28;20426;-74
2023/08/20 09:29:55;;;;;;;9.98;4.38;;;;;;;24.71;63.33;102136.03;5006807;28;20034;-74
2023/08/20 09:32:27;;;;;;;10.32;4.20;;;;;;;24.78;63.46;102131.94;5005241;28;20192;-74
2023/08/20 09:34:56;;;;;;;12.43;4.53;;;;;;;24.83;63.67;102132.44;5004898;28;20124;-73
2023/08/20 09:37:24;;;;;;;10.77;4.30;;;;;;;24.92;64.59;102126.44;5004975;28;20049;-75
2023/08/20 09:39:52;;;;;;;8.27;3.72;;;;;;;25.04;63.79;102127.38;5006481;28;20112;-76
2023/08/20 09:42:19;;;;;;;9.75;3.55;;;;;;;25.14;61.68;102132.09;5007730;28;20037;-75
2023/08/20 09:44:48;;;;;;;9.60;3.40;;;;;;;25.21;61.06;102131.56;5009146;28;20049;-75
2023/08/20 09:47:21;;;;;;;9.48;3.63;;;;;;;25.26;58.49;102121.28;5009281;28;20046;-76
2023/08/20 09:49:49;;;;;;;9.35;3.47;;;;;;;25.30;58.46;102127.31;5007219;28;20052;-74
2023/08/20 09:52:34;;;;;;;6.13;2.78;;;;;;;25.31;57.70;102131.72;5005662;28;20081;-74
2023/08/20 09:55:13;;;;;;;8.40;2.70;;;;;;;25.32;56.15;102121.81;4995188;28;20120;-74
2023/08/20 09:57:41;;;;;;;8.35;3.22;;;;;;;25.38;56.88;102127.63;4987759;28;20053;-75
2023/08/20 10:00:13;;;;;;;5.85;2.90;;;;;;;25.42;55.08;102129.13;4984926;28;20062;-74
2023/08/20 10:02:44;;;;;;;7.30;3.17;;;;;;;25.45;56.19;102130.75;4988307;28;20049;-74
2023/08/20 10:05:14;;;;;;;8.18;2.80;;;;;;;25.52;56.61;102132.03;4985471;28;20512;-74
2023/08/20 10:07:42;;;;;;;5.97;2.90;;;;;;;25.62;53.29;102134.06;4986452;28;20046;-75
2023/08/20 10:10:13;;;;;;;8.23;2.70;;;;;;;25.65;54.56;102133.81;4986947;28;20499;-75
2023/08/20 10:12:44;;;;;;;6.18;2.97;;;;;;;25.68;55.06;102128.19;4985826;28;20044;-74
2023/08/20 10:15:14;;;;;;;5.78;2.25;;;;;;;25.76;55.12;102131.16;4983156;28;20128;-75
2023/08/20 10:17:44;;;;;;;6.55;2.40;;;;;;;25.87;54.37;102133.09;4982268;28;20045;-75
2023/08/20 10:20:16;;;;;;;4.97;1.90;;;;;;;25.98;54.56;102130.44;4985892;28;20038;-74
2023/08/20 10:22:45;;;;;;;3.90;1.55;;;;;;;26.12;53.56;102132.09;4984584;28;20107;-74
2023/08/20 10:25:23;;;;;;;5.80;2.10;;;;;;;26.19;53.03;102130.66;4985140;28;20042;-74
2023/08/20 10:27:54;;;;;;;6.85;2.03;;;;;;;26.26;52.90;102127.47;4979969;28;20599;-73
2023/08/20 10:30:27;;;;;;;5.63;2.20;;;;;;;26.30;53.65;102123.56;4984171;28;20050;-72
2023/08/20 10:32:58;;;;;;;;;;;;;;;26.37;53.46;102134.75;5000719;28;20383;-73
2023/08/20 10:35:47;;;;;;;4.90;1.63;;;;;;;26.48;51.50;102135.63;4974619;28;19925;-73
2023/08/20 10:38:17;;;;;;;6.43;1.30;;;;;;;26.54;50.66;102134.28;4985563;28;20046;-74
2023/08/20 10:40:53;;;;;;;8.07;1.40;;;;;;;26.60;50.17;102132.94;4983630;28;20065;-74
2023/08/20 10:43:37;;;;;;;4.82;1.33;;;;;;;26.69;49.79;102134.06;4985550;28;20141;-74
2023/08/20 10:46:08;;;;;;;3.42;1.30;;;;;;;26.77;48.72;102137.91;4973549;28;20070;-75
2023/08/20 10:48:39;;;;;;;3.67;1.00;;;;;;;26.83;47.41;102127.59;4984828;28;20049;-75
2023/08/20 10:51:23;;;;;;;6.28;0.80;;;;;;;26.85;45.84;102126.50;4991779;28;20058;-75
2023/08/20 10:54:01;;;;;;;3.15;0.95;;;;;;;26.87;45.60;102129.06;4989785;28;20050;-75
2023/08/20 10:56:49;;;;;;;2.55;0.90;;;;;;;26.92;44.69;102135.81;4984356;28;20562;-73
2023/08/20 10:59:29;;;;;;;3.17;0.80;;;;;;;26.97;43.53;102135.44;4984317;28;20401;-74
2023/08/20 11:01:59;;;;;;;5.65;0.85;;;;;;;27.02;43.76;102125.13;4989409;28;20455;-75
2023/08/20 11:04:34;;;;;;;2.53;0.73;;;;;;;27.11;44.49;102128.97;4988342;28;20046;-74
2023/08/20 11:07:03;;;;;;;2.90;0.90;;;;;;;27.19;45.47;102128.31;4989369;28;20038;-74
2023/08/20 11:09:31;;;;;;;5.13;1.00;;;;;;;27.31;45.16;102137.31;4990107;28;20088;-76
2023/08/20 11:11:59;;;;;;;7.53;0.93;;;;;;;27.42;44.67;102132.72;4989973;28;20038;-74
2023/08/20 11:14:26;;;;;;;2.60;0.60;;;;;;;27.49;42.18;102143.06;4989417;28;20534;-74
2023/08/20 11:16:53;;;;;;;1.75;0.50;;;;;;;27.53;42.93;102139.13;4986552;28;20045;-74
2023/08/20 11:19:23;;;;;;;1.63;0.45;;;;;;;27.61;41.76;102136.63;4985712;28;20050;-74
2023/08/20 11:21:51;;;;;;;3.08;0.60;;;;;;;27.67;41.47;102132.56;4988135;28;20121;-74
2023/08/20 11:24:20;;;;;;;2.22;0.60;;;;;;;27.70;41.14;102129.59;4989156;28;20046;-73
2023/08/20 11:26:48;;;;;;;1.92;0.60;;;;;;;27.73;40.35;102138.31;4984972;28;20049;-75